sensor_id;sensor_type;location;lat;lon;timestamp;temperature;humidity
38788;DHT22;24536;45.488;12.238;2022-12-18T00:02:00;8.40;82.90
38788;DHT22;24536;45.488;12.238;2022-12-18T00:04:26;8.20;82.50
38788;DHT22;24536;45.488;12.238;2022-12-18T00:06:52;8.20;83.50
38788;DHT22;24536;45.488;12.238;2022-12-18T00:09:19;8.20;81.90
38788;DHT22;24536;45.488;12.238;2022-12-18T00:11:44;8.00;81.30
38788;DHT22;24536;45.488;12.238;2022-12-18T00:14:12;8.10;82.50
38788;DHT22;24536;45.488;12.238;2022-12-18T00:16:38;8.10;82.50
38788;DHT22;24536;45.488;12.238;2022-12-18T00:19:04;8.10;82.70
38788;DHT22;24536;45.488;12.238;2022-12-18T00:21:32;8.10;82.90
38788;DHT22;24536;45.488;12.238;2022-12-18T00:23:59;8.10;82.90
38788;DHT22;24536;45.488;12.238;2022-12-18T00:26:27;8.10;83.00
38788;DHT22;24536;45.488;12.238;2022-12-18T00:28:53;8.20;83.00
38788;DHT22;24536;45.488;12.238;2022-12-18T00:31:23;8.20;82.90
38788;DHT22;24536;45.488;12.238;2022-12-18T00:33:49;8.30;82.70
38788;DHT22;24536;45.488;12.238;2022-12-18T00:36:17;8.30;82.70
38788;DHT22;24536;45.488;12.238;2022-12-18T00:38:43;8.30;82.60
38788;DHT22;24536;45.488;12.238;2022-12-18T00:41:10;8.30;82.50
38788;DHT22;24536;45.488;12.238;2022-12-18T00:43:37;8.30;82.30
38788;DHT22;24536;45.488;12.238;2022-12-18T00:46:04;8.30;82.40
38788;DHT22;24536;45.488;12.238;2022-12-18T00:48:29;8.20;82.20
38788;DHT22;24536;45.488;12.238;2022-12-18T00:50:55;8.30;82.30
38788;DHT22;24536;45.488;12.238;2022-12-18T00:53:21;8.30;81.90
38788;DHT22;24536;45.488;12.238;2022-12-18T00:55:47;8.20;82.00
38788;DHT22;24536;45.488;12.238;2022-12-18T00:58:14;8.20;82.10
38788;DHT22;24536;45.488;12.238;2022-12-18T01:00:40;8.20;82.00
38788;DHT22;24536;45.488;12.238;2022-12-18T01:03:06;8.20;81.90
38788;DHT22;24536;45.488;12.238;2022-12-18T01:05:32;8.20;81.90
38788;DHT22;24536;45.488;12.238;2022-12-18T01:07:58;8.20;81.90
38788;DHT22;24536;45.488;12.238;2022-12-18T01:10:25;8.20;81.80
38788;DHT22;24536;45.488;12.238;2022-12-18T01:12:52;8.20;81.80
38788;DHT22;24536;45.488;12.238;2022-12-18T01:15:18;8.20;81.80
38788;DHT22;24536;45.488;12.238;2022-12-18T01:17:44;8.20;81.80
38788;DHT22;24536;45.488;12.238;2022-12-18T01:20:11;8.20;81.80
38788;DHT22;24536;45.488;12.238;2022-12-18T01:22:37;8.30;81.90
38788;DHT22;24536;45.488;12.238;2022-12-18T01:25:04;8.20;80.90
38788;DHT22;24536;45.488;12.238;2022-12-18T01:27:30;8.20;81.40
38788;DHT22;24536;45.488;12.238;2022-12-18T01:29:56;8.10;80.60
38788;DHT22;24536;45.488;12.238;2022-12-18T01:32:22;8.10;81.30
38788;DHT22;24536;45.488;12.238;2022-12-18T01:34:48;8.10;81.40
38788;DHT22;24536;45.488;12.238;2022-12-18T01:37:13;8.10;81.30
38788;DHT22;24536;45.488;12.238;2022-12-18T01:39:39;8.10;80.80
38788;DHT22;24536;45.488;12.238;2022-12-18T01:42:11;8.10;81.20
38788;DHT22;24536;45.488;12.238;2022-12-18T01:50:10;8.10;81.00
38788;DHT22;24536;45.488;12.238;2022-12-18T01:52:37;8.10;80.90
38788;DHT22;24536;45.488;12.238;2022-12-18T01:55:04;8.00;80.90
38788;DHT22;24536;45.488;12.238;2022-12-18T01:57:30;8.00;80.60
38788;DHT22;24536;45.488;12.238;2022-12-18T02:00:00;8.10;81.30
38788;DHT22;24536;45.488;12.238;2022-12-18T02:02:28;8.10;81.30
38788;DHT22;24536;45.488;12.238;2022-12-18T02:04:54;8.10;81.00
38788;DHT22;24536;45.488;12.238;2022-12-18T02:10:41;8.10;80.40
38788;DHT22;24536;45.488;12.238;2022-12-18T02:13:14;8.10;80.40
38788;DHT22;24536;45.488;12.238;2022-12-18T02:16:10;8.10;80.50
38788;DHT22;24536;45.488;12.238;2022-12-18T02:18:42;8.10;80.60
38788;DHT22;24536;45.488;12.238;2022-12-18T02:26:37;8.10;79.90
38788;DHT22;24536;45.488;12.238;2022-12-18T02:29:15;8.10;79.80
38788;DHT22;24536;45.488;12.238;2022-12-18T02:31:47;8.00;79.80
38788;DHT22;24536;45.488;12.238;2022-12-18T02:34:16;8.00;79.60
38788;DHT22;24536;45.488;12.238;2022-12-18T02:36:43;7.90;79.20
38788;DHT22;24536;45.488;12.238;2022-12-18T02:39:11;7.90;79.50
38788;DHT22;24536;45.488;12.238;2022-12-18T02:41:38;7.90;78.50
38788;DHT22;24536;45.488;12.238;2022-12-18T02:44:11;7.80;79.30
38788;DHT22;24536;45.488;12.238;2022-12-18T02:46:38;7.80;79.30
38788;DHT22;24536;45.488;12.238;2022-12-18T02:54:21;7.70;78.90
38788;DHT22;24536;45.488;12.238;2022-12-18T02:56:54;7.70;79.30
38788;DHT22;24536;45.488;12.238;2022-12-18T03:00:01;7.70;79.00
38788;DHT22;24536;45.488;12.238;2022-12-18T03:02:47;7.60;78.50
38788;DHT22;24536;45.488;12.238;2022-12-18T03:05:31;7.60;78.80
38788;DHT22;24536;45.488;12.238;2022-12-18T03:08:03;7.60;79.50
38788;DHT22;24536;45.488;12.238;2022-12-18T03:10:35;7.60;79.80
38788;DHT22;24536;45.488;12.238;2022-12-18T03:13:07;7.60;79.80
38788;DHT22;24536;45.488;12.238;2022-12-18T03:15:55;7.70;79.80
38788;DHT22;24536;45.488;12.238;2022-12-18T03:18:26;7.70;79.60
38788;DHT22;24536;45.488;12.238;2022-12-18T03:20:56;7.70;78.30
38788;DHT22;24536;45.488;12.238;2022-12-18T03:23:28;7.70;79.90
38788;DHT22;24536;45.488;12.238;2022-12-18T03:25:56;7.70;79.50
38788;DHT22;24536;45.488;12.238;2022-12-18T03:28:23;7.70;79.30
38788;DHT22;24536;45.488;12.238;2022-12-18T03:30:55;7.50;77.60
38788;DHT22;24536;45.488;12.238;2022-12-18T03:33:45;7.50;79.10
38788;DHT22;24536;45.488;12.238;2022-12-18T03:36:12;7.40;79.30
38788;DHT22;24536;45.488;12.238;2022-12-18T03:38:38;7.40;79.60
38788;DHT22;24536;45.488;12.238;2022-12-18T03:49:59;7.50;79.80
38788;DHT22;24536;45.488;12.238;2022-12-18T03:55:01;7.50;79.50
38788;DHT22;24536;45.488;12.238;2022-12-18T03:57:30;7.50;79.80
38788;DHT22;24536;45.488;12.238;2022-12-18T04:00:00;7.50;79.80
38788;DHT22;24536;45.488;12.238;2022-12-18T04:02:27;7.40;79.30
38788;DHT22;24536;45.488;12.238;2022-12-18T04:04:58;7.40;79.20
38788;DHT22;24536;45.488;12.238;2022-12-18T04:07:24;7.40;79.60
38788;DHT22;24536;45.488;12.238;2022-12-18T04:09:53;7.30;79.60
38788;DHT22;24536;45.488;12.238;2022-12-18T04:12:20;7.40;79.70
38788;DHT22;24536;45.488;12.238;2022-12-18T04:14:46;7.40;79.70
38788;DHT22;24536;45.488;12.238;2022-12-18T04:17:12;7.40;79.70
38788;DHT22;24536;45.488;12.238;2022-12-18T04:19:37;7.40;79.80
38788;DHT22;24536;45.488;12.238;2022-12-18T04:22:03;7.40;79.60
38788;DHT22;24536;45.488;12.238;2022-12-18T04:24:29;7.40;79.60
38788;DHT22;24536;45.488;12.238;2022-12-18T04:26:54;7.40;79.60
38788;DHT22;24536;45.488;12.238;2022-12-18T04:29:20;7.40;79.70
38788;DHT22;24536;45.488;12.238;2022-12-18T04:31:46;7.40;79.50
38788;DHT22;24536;45.488;12.238;2022-12-18T04:34:11;7.50;79.50
38788;DHT22;24536;45.488;12.238;2022-12-18T04:36:37;7.50;79.40
38788;DHT22;24536;45.488;12.238;2022-12-18T04:39:03;7.40;79.20
38788;DHT22;24536;45.488;12.238;2022-12-18T04:41:28;7.50;79.40
38788;DHT22;24536;45.488;12.238;2022-12-18T04:43:54;7.50;79.60
38788;DHT22;24536;45.488;12.238;2022-12-18T04:46:20;7.50;79.50
38788;DHT22;24536;45.488;12.238;2022-12-18T04:48:45;7.50;79.30
38788;DHT22;24536;45.488;12.238;2022-12-18T04:51:12;7.50;79.00
38788;DHT22;24536;45.488;12.238;2022-12-18T04:53:38;7.50;79.10
38788;DHT22;24536;45.488;12.238;2022-12-18T04:56:10;7.50;79.10
38788;DHT22;24536;45.488;12.238;2022-12-18T04:58:36;7.50;79.10
38788;DHT22;24536;45.488;12.238;2022-12-18T05:01:03;7.50;79.30
38788;DHT22;24536;45.488;12.238;2022-12-18T05:03:29;7.50;79.70
38788;DHT22;24536;45.488;12.238;2022-12-18T05:05:55;7.50;79.60
38788;DHT22;24536;45.488;12.238;2022-12-18T05:08:21;7.40;79.20
38788;DHT22;24536;45.488;12.238;2022-12-18T05:10:46;7.50;79.20
38788;DHT22;24536;45.488;12.238;2022-12-18T05:13:12;7.50;79.80
38788;DHT22;24536;45.488;12.238;2022-12-18T05:15:38;7.50;79.30
38788;DHT22;24536;45.488;12.238;2022-12-18T05:18:04;7.40;79.30
38788;DHT22;24536;45.488;12.238;2022-12-18T05:20:30;7.40;79.50
38788;DHT22;24536;45.488;12.238;2022-12-18T05:22:57;7.40;79.30
38788;DHT22;24536;45.488;12.238;2022-12-18T05:25:23;7.40;79.40
38788;DHT22;24536;45.488;12.238;2022-12-18T05:27:49;7.30;78.90
38788;DHT22;24536;45.488;12.238;2022-12-18T05:30:15;7.40;79.20
38788;DHT22;24536;45.488;12.238;2022-12-18T05:32:41;7.30;78.70
38788;DHT22;24536;45.488;12.238;2022-12-18T05:35:09;7.30;78.70
38788;DHT22;24536;45.488;12.238;2022-12-18T05:37:35;7.30;79.50
38788;DHT22;24536;45.488;12.238;2022-12-18T05:40:01;7.30;79.40
38788;DHT22;24536;45.488;12.238;2022-12-18T05:42:27;7.20;79.40
38788;DHT22;24536;45.488;12.238;2022-12-18T05:44:53;7.20;79.50
38788;DHT22;24536;45.488;12.238;2022-12-18T05:47:19;7.20;79.90
38788;DHT22;24536;45.488;12.238;2022-12-18T05:49:44;7.20;79.90
38788;DHT22;24536;45.488;12.238;2022-12-18T05:52:10;7.20;80.00
38788;DHT22;24536;45.488;12.238;2022-12-18T05:54:36;7.20;80.00
38788;DHT22;24536;45.488;12.238;2022-12-18T05:57:02;7.20;80.10
38788;DHT22;24536;45.488;12.238;2022-12-18T05:59:27;7.20;79.90
38788;DHT22;24536;45.488;12.238;2022-12-18T06:01:53;7.20;80.00
38788;DHT22;24536;45.488;12.238;2022-12-18T06:04:19;7.20;80.00
38788;DHT22;24536;45.488;12.238;2022-12-18T06:06:45;7.10;79.50
38788;DHT22;24536;45.488;12.238;2022-12-18T06:09:10;7.20;79.90
38788;DHT22;24536;45.488;12.238;2022-12-18T06:11:37;7.20;80.00
38788;DHT22;24536;45.488;12.238;2022-12-18T06:14:04;7.20;80.20
38788;DHT22;24536;45.488;12.238;2022-12-18T06:16:32;7.10;79.80
38788;DHT22;24536;45.488;12.238;2022-12-18T06:19:00;7.10;80.30
38788;DHT22;24536;45.488;12.238;2022-12-18T06:21:27;7.00;80.10
38788;DHT22;24536;45.488;12.238;2022-12-18T06:23:53;7.00;80.30
38788;DHT22;24536;45.488;12.238;2022-12-18T06:26:19;7.10;80.40
38788;DHT22;24536;45.488;12.238;2022-12-18T06:28:44;7.10;80.10
38788;DHT22;24536;45.488;12.238;2022-12-18T06:31:10;7.00;79.80
38788;DHT22;24536;45.488;12.238;2022-12-18T06:33:38;7.00;80.30
38788;DHT22;24536;45.488;12.238;2022-12-18T06:36:10;7.00;80.40
38788;DHT22;24536;45.488;12.238;2022-12-18T06:38:38;7.00;80.40
38788;DHT22;24536;45.488;12.238;2022-12-18T06:41:22;7.00;80.50
38788;DHT22;24536;45.488;12.238;2022-12-18T06:43:47;7.00;80.60
38788;DHT22;24536;45.488;12.238;2022-12-18T06:46:13;6.90;80.30
38788;DHT22;24536;45.488;12.238;2022-12-18T06:48:39;6.90;80.70
38788;DHT22;24536;45.488;12.238;2022-12-18T06:51:05;6.90;80.80
38788;DHT22;24536;45.488;12.238;2022-12-18T06:53:31;6.90;80.80
38788;DHT22;24536;45.488;12.238;2022-12-18T06:56:05;6.90;80.90
38788;DHT22;24536;45.488;12.238;2022-12-18T06:58:33;7.00;80.90
38788;DHT22;24536;45.488;12.238;2022-12-18T07:01:06;7.00;80.80
38788;DHT22;24536;45.488;12.238;2022-12-18T07:03:32;7.00;80.70
38788;DHT22;24536;45.488;12.238;2022-12-18T07:05:58;7.00;80.70
38788;DHT22;24536;45.488;12.238;2022-12-18T07:08:24;7.00;80.20
38788;DHT22;24536;45.488;12.238;2022-12-18T07:10:50;7.00;80.60
38788;DHT22;24536;45.488;12.238;2022-12-18T07:13:16;7.10;80.60
38788;DHT22;24536;45.488;12.238;2022-12-18T07:15:43;7.00;80.00
38788;DHT22;24536;45.488;12.238;2022-12-18T07:18:09;7.00;80.20
38788;DHT22;24536;45.488;12.238;2022-12-18T07:20:35;7.00;80.30
38788;DHT22;24536;45.488;12.238;2022-12-18T07:23:03;7.00;80.30
38788;DHT22;24536;45.488;12.238;2022-12-18T07:25:29;7.00;80.30
38788;DHT22;24536;45.488;12.238;2022-12-18T07:27:54;7.00;80.50
38788;DHT22;24536;45.488;12.238;2022-12-18T07:30:20;7.00;79.90
38788;DHT22;24536;45.488;12.238;2022-12-18T07:32:46;7.10;81.50
38788;DHT22;24536;45.488;12.238;2022-12-18T07:35:12;7.10;82.10
38788;DHT22;24536;45.488;12.238;2022-12-18T07:37:38;7.10;81.10
38788;DHT22;24536;45.488;12.238;2022-12-18T07:40:04;7.30;80.80
38788;DHT22;24536;45.488;12.238;2022-12-18T07:42:29;7.30;80.40
38788;DHT22;24536;45.488;12.238;2022-12-18T07:44:59;7.30;80.20
38788;DHT22;24536;45.488;12.238;2022-12-18T07:47:25;7.30;80.00
38788;DHT22;24536;45.488;12.238;2022-12-18T07:49:51;7.20;79.50
38788;DHT22;24536;45.488;12.238;2022-12-18T07:52:17;7.30;80.00
38788;DHT22;24536;45.488;12.238;2022-12-18T07:54:43;7.40;79.90
38788;DHT22;24536;45.488;12.238;2022-12-18T07:57:09;7.40;79.80
38788;DHT22;24536;45.488;12.238;2022-12-18T07:59:35;7.40;79.20
38788;DHT22;24536;45.488;12.238;2022-12-18T08:02:00;7.40;79.40
38788;DHT22;24536;45.488;12.238;2022-12-18T08:04:27;7.30;79.50
38788;DHT22;24536;45.488;12.238;2022-12-18T08:06:53;7.40;79.60
38788;DHT22;24536;45.488;12.238;2022-12-18T08:09:18;7.40;79.50
38788;DHT22;24536;45.488;12.238;2022-12-18T08:11:44;7.40;79.50
38788;DHT22;24536;45.488;12.238;2022-12-18T08:14:10;7.50;79.70
38788;DHT22;24536;45.488;12.238;2022-12-18T08:16:36;7.40;78.70
38788;DHT22;24536;45.488;12.238;2022-12-18T08:19:02;7.50;79.20
38788;DHT22;24536;45.488;12.238;2022-12-18T08:21:30;7.40;77.90
38788;DHT22;24536;45.488;12.238;2022-12-18T08:23:58;7.30;78.50
38788;DHT22;24536;45.488;12.238;2022-12-18T08:26:26;7.30;79.30
38788;DHT22;24536;45.488;12.238;2022-12-18T08:28:54;7.40;79.60
38788;DHT22;24536;45.488;12.238;2022-12-18T08:31:20;7.40;79.30
38788;DHT22;24536;45.488;12.238;2022-12-18T08:33:49;7.50;79.30
38788;DHT22;24536;45.488;12.238;2022-12-18T08:36:14;7.50;79.00
38788;DHT22;24536;45.488;12.238;2022-12-18T08:38:40;7.60;79.10
38788;DHT22;24536;45.488;12.238;2022-12-18T08:41:08;7.70;79.00
38788;DHT22;24536;45.488;12.238;2022-12-18T08:43:34;7.80;78.70
38788;DHT22;24536;45.488;12.238;2022-12-18T08:46:20;7.80;78.50
38788;DHT22;24536;45.488;12.238;2022-12-18T08:48:46;7.90;78.70
38788;DHT22;24536;45.488;12.238;2022-12-18T08:51:16;7.90;78.10
38788;DHT22;24536;45.488;12.238;2022-12-18T08:53:43;7.90;78.10
38788;DHT22;24536;45.488;12.238;2022-12-18T08:56:10;7.90;77.90
38788;DHT22;24536;45.488;12.238;2022-12-18T08:58:35;8.00;78.30
38788;DHT22;24536;45.488;12.238;2022-12-18T09:01:02;8.10;78.20
38788;DHT22;24536;45.488;12.238;2022-12-18T09:03:28;8.10;78.00
38788;DHT22;24536;45.488;12.238;2022-12-18T09:05:54;8.10;77.90
38788;DHT22;24536;45.488;12.238;2022-12-18T09:08:20;8.10;77.80
38788;DHT22;24536;45.488;12.238;2022-12-18T09:10:47;8.20;77.90
38788;DHT22;24536;45.488;12.238;2022-12-18T09:13:13;8.30;77.60
38788;DHT22;24536;45.488;12.238;2022-12-18T09:15:48;8.30;77.50
38788;DHT22;24536;45.488;12.238;2022-12-18T09:18:16;8.40;77.40
38788;DHT22;24536;45.488;12.238;2022-12-18T09:20:42;8.50;77.10
38788;DHT22;24536;45.488;12.238;2022-12-18T09:23:08;8.50;77.20
38788;DHT22;24536;45.488;12.238;2022-12-18T09:25:35;8.60;77.60
38788;DHT22;24536;45.488;12.238;2022-12-18T09:28:12;8.60;76.00
38788;DHT22;24536;45.488;12.238;2022-12-18T09:30:39;8.70;76.80
38788;DHT22;24536;45.488;12.238;2022-12-18T09:33:05;8.70;76.10
38788;DHT22;24536;45.488;12.238;2022-12-18T09:35:31;8.80;75.50
38788;DHT22;24536;45.488;12.238;2022-12-18T09:37:57;8.80;75.50
38788;DHT22;24536;45.488;12.238;2022-12-18T09:40:25;8.80;75.10
38788;DHT22;24536;45.488;12.238;2022-12-18T09:42:58;8.90;75.20
38788;DHT22;24536;45.488;12.238;2022-12-18T09:45:25;8.90;74.40
38788;DHT22;24536;45.488;12.238;2022-12-18T09:47:52;8.90;73.90
38788;DHT22;24536;45.488;12.238;2022-12-18T09:52:49;9.10;73.00
38788;DHT22;24536;45.488;12.238;2022-12-18T09:58:20;9.20;74.50
38788;DHT22;24536;45.488;12.238;2022-12-18T10:00:43;9.30;74.80
38788;DHT22;24536;45.488;12.238;2022-12-18T10:03:11;9.40;73.70
38788;DHT22;24536;45.488;12.238;2022-12-18T10:05:47;9.50;73.30
38788;DHT22;24536;45.488;12.238;2022-12-18T10:08:39;9.60;72.90
38788;DHT22;24536;45.488;12.238;2022-12-18T10:19:37;9.70;72.30
38788;DHT22;24536;45.488;12.238;2022-12-18T10:25:16;10.00;72.00
38788;DHT22;24536;45.488;12.238;2022-12-18T10:27:44;10.20;72.10
38788;DHT22;24536;45.488;12.238;2022-12-18T10:30:17;10.30;72.00
38788;DHT22;24536;45.488;12.238;2022-12-18T10:32:43;10.50;72.00
38788;DHT22;24536;45.488;12.238;2022-12-18T10:35:23;10.70;71.50
38788;DHT22;24536;45.488;12.238;2022-12-18T10:40:36;11.20;70.10
38788;DHT22;24536;45.488;12.238;2022-12-18T10:43:13;11.40;69.50
38788;DHT22;24536;45.488;12.238;2022-12-18T10:45:41;11.70;69.60
38788;DHT22;24536;45.488;12.238;2022-12-18T10:48:21;11.90;68.80
38788;DHT22;24536;45.488;12.238;2022-12-18T10:50:49;12.30;67.80
38788;DHT22;24536;45.488;12.238;2022-12-18T10:53:27;12.20;68.20
38788;DHT22;24536;45.488;12.238;2022-12-18T10:55:56;12.40;67.70
38788;DHT22;24536;45.488;12.238;2022-12-18T11:03:41;12.80;66.30
38788;DHT22;24536;45.488;12.238;2022-12-18T11:08:36;12.90;65.30
38788;DHT22;24536;45.488;12.238;2022-12-18T11:11:02;13.10;65.50
38788;DHT22;24536;45.488;12.238;2022-12-18T11:13:30;13.20;64.70
38788;DHT22;24536;45.488;12.238;2022-12-18T11:15:57;13.30;65.00
38788;DHT22;24536;45.488;12.238;2022-12-18T11:18:34;13.00;61.50
38788;DHT22;24536;45.488;12.238;2022-12-18T11:23:34;12.40;61.70
38788;DHT22;24536;45.488;12.238;2022-12-18T11:26:02;12.40;64.20
38788;DHT22;24536;45.488;12.238;2022-12-18T11:31:12;12.50;62.30
38788;DHT22;24536;45.488;12.238;2022-12-18T11:33:40;12.60;64.30
38788;DHT22;24536;45.488;12.238;2022-12-18T11:36:08;12.90;65.00
38788;DHT22;24536;45.488;12.238;2022-12-18T11:38:39;13.30;65.20
38788;DHT22;24536;45.488;12.238;2022-12-18T11:43:47;14.80;60.70
38788;DHT22;24536;45.488;12.238;2022-12-18T11:46:19;15.80;59.40
38788;DHT22;24536;45.488;12.238;2022-12-18T11:49:18;16.20;59.50
38788;DHT22;24536;45.488;12.238;2022-12-18T11:51:59;17.50;50.70
38788;DHT22;24536;45.488;12.238;2022-12-18T11:54:26;17.70;54.70
38788;DHT22;24536;45.488;12.238;2022-12-18T11:57:04;18.10;53.00
38788;DHT22;24536;45.488;12.238;2022-12-18T12:07:58;20.60;47.00
38788;DHT22;24536;45.488;12.238;2022-12-18T12:16:18;21.30;44.80
38788;DHT22;24536;45.488;12.238;2022-12-18T12:21:42;21.70;43.70
38788;DHT22;24536;45.488;12.238;2022-12-18T12:24:19;21.60;41.10
38788;DHT22;24536;45.488;12.238;2022-12-18T12:35:22;21.00;43.10
38788;DHT22;24536;45.488;12.238;2022-12-18T12:40:18;21.10;43.90
38788;DHT22;24536;45.488;12.238;2022-12-18T12:42:50;21.00;44.00
38788;DHT22;24536;45.488;12.238;2022-12-18T12:45:54;20.60;43.00
38788;DHT22;24536;45.488;12.238;2022-12-18T12:51:00;20.30;44.00
38788;DHT22;24536;45.488;12.238;2022-12-18T12:53:32;20.30;44.20
38788;DHT22;24536;45.488;12.238;2022-12-18T12:56:01;20.20;43.90
38788;DHT22;24536;45.488;12.238;2022-12-18T12:58:36;20.10;43.40
38788;DHT22;24536;45.488;12.238;2022-12-18T13:06:16;19.70;42.70
38788;DHT22;24536;45.488;12.238;2022-12-18T13:08:58;19.60;43.10
38788;DHT22;24536;45.488;12.238;2022-12-18T13:14:36;19.30;43.60
38788;DHT22;24536;45.488;12.238;2022-12-18T13:20:12;18.90;43.70
38788;DHT22;24536;45.488;12.238;2022-12-18T13:22:46;18.70;43.80
38788;DHT22;24536;45.488;12.238;2022-12-18T13:25:34;18.30;43.50
38788;DHT22;24536;45.488;12.238;2022-12-18T13:28:04;18.00;44.90
38788;DHT22;24536;45.488;12.238;2022-12-18T13:38:32;16.20;47.60
38788;DHT22;24536;45.488;12.238;2022-12-18T13:51:43;14.90;51.50
38788;DHT22;24536;45.488;12.238;2022-12-18T13:54:33;14.70;51.60
38788;DHT22;24536;45.488;12.238;2022-12-18T13:57:00;14.50;51.20
38788;DHT22;24536;45.488;12.238;2022-12-18T13:59:36;14.30;52.30
38788;DHT22;24536;45.488;12.238;2022-12-18T14:02:17;14.10;52.90
38788;DHT22;24536;45.488;12.238;2022-12-18T14:04:46;13.80;53.30
38788;DHT22;24536;45.488;12.238;2022-12-18T14:07:14;13.70;53.70
38788;DHT22;24536;45.488;12.238;2022-12-18T14:09:43;13.60;53.40
38788;DHT22;24536;45.488;12.238;2022-12-18T14:12:31;13.60;53.40
38788;DHT22;24536;45.488;12.238;2022-12-18T14:15:28;13.50;54.40
38788;DHT22;24536;45.488;12.238;2022-12-18T14:18:25;13.50;54.40
38788;DHT22;24536;45.488;12.238;2022-12-18T14:20:57;13.40;55.20
38788;DHT22;24536;45.488;12.238;2022-12-18T14:23:31;13.30;55.60
38788;DHT22;24536;45.488;12.238;2022-12-18T14:25:57;13.20;55.60
38788;DHT22;24536;45.488;12.238;2022-12-18T14:28:23;13.10;55.50
38788;DHT22;24536;45.488;12.238;2022-12-18T14:30:49;13.10;56.20
38788;DHT22;24536;45.488;12.238;2022-12-18T14:35:56;12.90;56.60
38788;DHT22;24536;45.488;12.238;2022-12-18T14:41:01;12.80;57.40
38788;DHT22;24536;45.488;12.238;2022-12-18T14:43:30;12.70;57.90
38788;DHT22;24536;45.488;12.238;2022-12-18T14:45:56;12.70;58.60
38788;DHT22;24536;45.488;12.238;2022-12-18T14:51:15;12.60;58.80
38788;DHT22;24536;45.488;12.238;2022-12-18T14:54:05;12.50;58.70
38788;DHT22;24536;45.488;12.238;2022-12-18T14:56:41;12.50;59.30
38788;DHT22;24536;45.488;12.238;2022-12-18T14:59:21;12.40;60.00
38788;DHT22;24536;45.488;12.238;2022-12-18T15:02:35;12.40;60.40
38788;DHT22;24536;45.488;12.238;2022-12-18T15:04:42;12.40;60.90
38788;DHT22;24536;45.488;12.238;2022-12-18T15:07:22;12.30;61.50
38788;DHT22;24536;45.488;12.238;2022-12-18T15:10:28;12.30;61.90
38788;DHT22;24536;45.488;12.238;2022-12-18T15:18:04;12.00;63.10
38788;DHT22;24536;45.488;12.238;2022-12-18T15:20:49;12.00;62.90
38788;DHT22;24536;45.488;12.238;2022-12-18T15:23:28;12.00;62.90
38788;DHT22;24536;45.488;12.238;2022-12-18T15:28:34;11.80;63.70
38788;DHT22;24536;45.488;12.238;2022-12-18T15:31:05;11.80;64.30
38788;DHT22;24536;45.488;12.238;2022-12-18T15:33:36;11.80;64.80
38788;DHT22;24536;45.488;12.238;2022-12-18T15:36:09;11.60;64.90
38788;DHT22;24536;45.488;12.238;2022-12-18T15:38:35;11.60;65.40
38788;DHT22;24536;45.488;12.238;2022-12-18T15:43:28;11.50;66.30
38788;DHT22;24536;45.488;12.238;2022-12-18T15:46:12;11.50;66.90
38788;DHT22;24536;45.488;12.238;2022-12-18T15:48:44;11.40;66.60
38788;DHT22;24536;45.488;12.238;2022-12-18T15:53:47;11.30;67.30
38788;DHT22;24536;45.488;12.238;2022-12-18T15:56:15;11.20;67.60
38788;DHT22;24536;45.488;12.238;2022-12-18T15:59:00;11.20;67.70
38788;DHT22;24536;45.488;12.238;2022-12-18T16:01:29;11.10;67.60
38788;DHT22;24536;45.488;12.238;2022-12-18T16:03:55;11.10;68.30
38788;DHT22;24536;45.488;12.238;2022-12-18T16:06:21;11.00;68.60
38788;DHT22;24536;45.488;12.238;2022-12-18T16:08:47;11.00;69.70
38788;DHT22;24536;45.488;12.238;2022-12-18T16:11:23;10.90;69.60
38788;DHT22;24536;45.488;12.238;2022-12-18T16:14:24;10.90;69.80
38788;DHT22;24536;45.488;12.238;2022-12-18T16:16:57;10.80;69.70
38788;DHT22;24536;45.488;12.238;2022-12-18T16:19:23;10.80;69.70
38788;DHT22;24536;45.488;12.238;2022-12-18T16:21:51;10.70;70.20
38788;DHT22;24536;45.488;12.238;2022-12-18T16:24:19;10.60;70.00
38788;DHT22;24536;45.488;12.238;2022-12-18T16:26:47;10.60;70.20
38788;DHT22;24536;45.488;12.238;2022-12-18T16:29:13;10.50;70.60
38788;DHT22;24536;45.488;12.238;2022-12-18T16:31:39;10.50;70.80
38788;DHT22;24536;45.488;12.238;2022-12-18T16:39:03;10.40;72.20
38788;DHT22;24536;45.488;12.238;2022-12-18T16:41:28;10.40;72.40
38788;DHT22;24536;45.488;12.238;2022-12-18T16:43:58;10.30;72.30
38788;DHT22;24536;45.488;12.238;2022-12-18T16:46:23;10.30;72.40
38788;DHT22;24536;45.488;12.238;2022-12-18T16:48:49;10.30;72.60
38788;DHT22;24536;45.488;12.238;2022-12-18T16:51:15;10.20;72.40
38788;DHT22;24536;45.488;12.238;2022-12-18T16:53:41;10.20;73.10
38788;DHT22;24536;45.488;12.238;2022-12-18T16:56:07;10.10;73.60
38788;DHT22;24536;45.488;12.238;2022-12-18T16:58:33;10.10;73.90
38788;DHT22;24536;45.488;12.238;2022-12-18T17:00:59;10.00;73.90
38788;DHT22;24536;45.488;12.238;2022-12-18T17:03:25;10.00;74.70
38788;DHT22;24536;45.488;12.238;2022-12-18T17:05:51;10.00;74.80
38788;DHT22;24536;45.488;12.238;2022-12-18T17:08:16;10.00;75.10
38788;DHT22;24536;45.488;12.238;2022-12-18T17:10:42;9.90;75.40
38788;DHT22;24536;45.488;12.238;2022-12-18T17:13:08;9.90;75.40
38788;DHT22;24536;45.488;12.238;2022-12-18T17:15:34;9.90;75.90
38788;DHT22;24536;45.488;12.238;2022-12-18T17:18:01;9.90;76.00
38788;DHT22;24536;45.488;12.238;2022-12-18T17:20:26;9.90;76.60
38788;DHT22;24536;45.488;12.238;2022-12-18T17:25:18;9.80;76.80
38788;DHT22;24536;45.488;12.238;2022-12-18T17:27:44;9.80;76.80
38788;DHT22;24536;45.488;12.238;2022-12-18T17:30:10;9.80;76.80
38788;DHT22;24536;45.488;12.238;2022-12-18T17:32:36;9.70;77.10
38788;DHT22;24536;45.488;12.238;2022-12-18T17:35:02;9.70;77.10
38788;DHT22;24536;45.488;12.238;2022-12-18T17:39:53;9.70;77.10
38788;DHT22;24536;45.488;12.238;2022-12-18T17:42:19;9.70;77.30
38788;DHT22;24536;45.488;12.238;2022-12-18T17:47:12;9.60;77.40
38788;DHT22;24536;45.488;12.238;2022-12-18T17:49:38;9.60;77.30
38788;DHT22;24536;45.488;12.238;2022-12-18T17:52:04;9.60;77.00
38788;DHT22;24536;45.488;12.238;2022-12-18T17:54:29;9.60;77.30
38788;DHT22;24536;45.488;12.238;2022-12-18T17:56:55;9.50;77.00
38788;DHT22;24536;45.488;12.238;2022-12-18T17:59:21;9.50;77.20
38788;DHT22;24536;45.488;12.238;2022-12-18T18:01:47;9.50;77.10
38788;DHT22;24536;45.488;12.238;2022-12-18T18:04:13;9.40;77.00
38788;DHT22;24536;45.488;12.238;2022-12-18T18:06:39;9.40;77.20
38788;DHT22;24536;45.488;12.238;2022-12-18T18:09:06;9.50;77.70
38788;DHT22;24536;45.488;12.238;2022-12-18T18:11:32;9.40;77.60
38788;DHT22;24536;45.488;12.238;2022-12-18T18:14:18;9.40;78.00
38788;DHT22;24536;45.488;12.238;2022-12-18T18:16:49;9.30;77.80
38788;DHT22;24536;45.488;12.238;2022-12-18T18:19:18;9.30;78.00